createdAt,value
2023-08-29T00:00:27.840Z,21.12
2023-08-29T00:03:32.242Z,21.12
2023-08-29T00:06:34.244Z,21.12
2023-08-29T00:09:36.457Z,21.07
2023-08-29T00:12:38.253Z,20.99
2023-08-29T00:15:40.292Z,20.99
2023-08-29T00:18:44.870Z,20.97
2023-08-29T00:21:48.902Z,20.96
2023-08-29T00:24:53.497Z,20.94
2023-08-29T00:27:55.490Z,20.89
2023-08-29T00:30:57.380Z,20.87
2023-08-29T00:33:59.320Z,20.88
2023-08-29T00:37:01.288Z,20.84
2023-08-29T00:40:04.955Z,20.80
2023-08-29T00:43:07.093Z,20.75
2023-08-29T00:46:09.252Z,20.64
2023-08-29T00:49:13.145Z,20.65
2023-08-29T00:52:15.472Z,20.55
2023-08-29T00:55:18.404Z,20.51
2023-08-29T00:58:20.587Z,20.49
2023-08-29T01:01:22.910Z,20.45
2023-08-29T01:04:24.830Z,20.32
2023-08-29T01:07:26.914Z,20.34
2023-08-29T01:10:38.025Z,20.33
2023-08-29T01:14:04.057Z,20.30
2023-08-29T01:17:12.129Z,20.26
2023-08-29T01:20:15.676Z,20.18
2023-08-29T01:23:29.371Z,20.15
2023-08-29T01:26:32.317Z,20.11
2023-08-29T01:29:35.537Z,20.05
2023-08-29T01:32:40.116Z,20.03
2023-08-29T01:35:48.912Z,19.87
2023-08-29T01:38:50.843Z,19.82
2023-08-29T01:41:52.711Z,19.81
2023-08-29T01:44:55.499Z,19.80
2023-08-29T01:47:57.964Z,19.76
2023-08-29T01:50:59.872Z,19.65
2023-08-29T01:54:01.780Z,19.63
2023-08-29T01:57:05.017Z,19.59
2023-08-29T02:00:08.660Z,19.61
2023-08-29T02:03:16.459Z,19.57
2023-08-29T02:06:18.502Z,19.53
2023-08-29T02:09:20.593Z,19.46
2023-08-29T02:12:22.518Z,19.40
2023-08-29T02:15:24.439Z,19.36
2023-08-29T02:18:26.471Z,19.36
2023-08-29T02:21:28.354Z,19.34
2023-08-29T02:24:30.744Z,19.30
2023-08-29T02:27:36.260Z,19.22
2023-08-29T02:30:38.323Z,19.20
2023-08-29T02:33:40.287Z,19.21
2023-08-29T02:36:42.527Z,19.21
2023-08-29T02:39:44.508Z,19.18
2023-08-29T02:42:46.550Z,19.11
2023-08-29T02:45:53.053Z,19.15
2023-08-29T02:48:54.952Z,19.12
2023-08-29T02:51:57.975Z,19.12
2023-08-29T02:54:59.998Z,19.06
2023-08-29T02:58:02.180Z,19.09
2023-08-29T03:01:07.365Z,19.03
2023-08-29T03:04:09.300Z,19.06
2023-08-29T03:07:11.681Z,19.06
2023-08-29T03:10:13.622Z,19.01
2023-08-29T03:13:15.488Z,19.03
2023-08-29T03:16:20.269Z,19.05
2023-08-29T03:19:22.831Z,19.09
2023-08-29T03:22:25.605Z,19.07
2023-08-29T03:25:27.465Z,19.08
2023-08-29T03:28:29.573Z,19.15
2023-08-29T03:31:31.677Z,19.15
2023-08-29T03:34:35.932Z,19.14
2023-08-29T03:37:37.857Z,19.19
2023-08-29T03:40:39.744Z,19.22
2023-08-29T03:43:41.707Z,19.27
2023-08-29T03:46:44.416Z,19.35
2023-08-29T03:49:46.290Z,19.43
2023-08-29T03:52:48.353Z,19.48
2023-08-29T03:55:51.397Z,19.53
2023-08-29T03:58:53.161Z,19.56
2023-08-29T04:01:55.171Z,19.64
2023-08-29T04:05:13.264Z,19.69
2023-08-29T04:08:16.246Z,19.70
2023-08-29T04:11:18.235Z,19.73
2023-08-29T04:14:20.294Z,19.77
2023-08-29T04:17:22.209Z,19.80
2023-08-29T04:20:24.308Z,19.86
2023-08-29T04:23:27.117Z,19.88
2023-08-29T04:26:29.311Z,19.90
2023-08-29T04:29:31.211Z,19.86
2023-08-29T04:32:35.684Z,19.81
2023-08-29T04:35:37.712Z,19.82
2023-08-29T04:38:39.928Z,19.90
2023-08-29T04:41:41.890Z,19.92
2023-08-29T04:44:45.840Z,20.00
2023-08-29T04:47:49.183Z,20.10
2023-08-29T04:50:51.171Z,20.19
2023-08-29T04:53:53.065Z,20.21
2023-08-29T04:56:54.984Z,20.34
2023-08-29T04:59:56.924Z,20.36
2023-08-29T05:02:59.071Z,20.44
2023-08-29T05:06:01.078Z,20.52
2023-08-29T05:09:03.296Z,20.60
2023-08-29T05:12:05.999Z,20.64
2023-08-29T05:15:09.180Z,20.64
2023-08-29T05:18:12.188Z,20.70
2023-08-29T05:21:14.189Z,20.85
2023-08-29T05:24:16.057Z,20.95
2023-08-29T05:27:17.930Z,21.08
2023-08-29T05:30:19.990Z,21.20
2023-08-29T05:33:22.007Z,21.38
2023-08-29T05:36:23.970Z,21.48
2023-08-29T05:39:25.922Z,21.59
2023-08-29T05:42:28.151Z,21.65
2023-08-29T05:45:30.161Z,21.53
2023-08-29T05:48:32.123Z,21.51
2023-08-29T05:51:34.170Z,21.39
2023-08-29T05:54:37.813Z,21.33
2023-08-29T05:57:39.657Z,21.32
2023-08-29T06:00:41.638Z,21.38
2023-08-29T06:03:43.851Z,21.41
2023-08-29T06:06:45.829Z,21.40
2023-08-29T06:09:47.756Z,21.41
2023-08-29T06:12:49.904Z,21.39
2023-08-29T06:15:51.807Z,21.41
2023-08-29T06:18:53.744Z,21.46
2023-08-29T06:21:55.643Z,21.54
2023-08-29T06:24:57.599Z,21.65
2023-08-29T06:27:59.571Z,21.76
2023-08-29T06:31:11.039Z,21.84
2023-08-29T06:34:13.459Z,22.08
2023-08-29T06:37:16.198Z,22.40
2023-08-29T06:40:18.171Z,22.75
2023-08-29T06:43:20.109Z,23.04
2023-08-29T06:46:22.055Z,23.42
2023-08-29T06:49:23.988Z,23.90
2023-08-29T06:52:27.771Z,24.30
2023-08-29T06:55:29.987Z,24.45
2023-08-29T06:58:31.842Z,24.40
2023-08-29T07:01:34.201Z,24.33
2023-08-29T07:04:36.141Z,24.33
2023-08-29T07:07:38.742Z,24.39
2023-08-29T07:10:40.605Z,24.49
2023-08-29T07:13:42.583Z,24.51
2023-08-29T07:16:50.609Z,24.57
2023-08-29T07:20:03.579Z,24.77
2023-08-29T07:23:10.933Z,24.99
2023-08-29T07:26:12.872Z,25.15
2023-08-29T07:29:14.719Z,25.26
2023-08-29T07:32:16.581Z,25.60
2023-08-29T07:35:18.510Z,25.80
2023-08-29T07:38:20.428Z,26.05
2023-08-29T07:41:22.304Z,26.15
2023-08-29T07:44:24.200Z,26.33
2023-08-29T07:47:26.195Z,26.49
2023-08-29T07:50:28.786Z,26.62
2023-08-29T07:53:30.779Z,26.94
2023-08-29T07:56:32.535Z,27.10
2023-08-29T07:59:34.404Z,27.44
2023-08-29T08:02:39.616Z,27.77
2023-08-29T08:05:41.651Z,27.79
2023-08-29T08:08:43.503Z,27.91
2023-08-29T08:11:45.500Z,27.98
2023-08-29T08:14:47.313Z,28.19
2023-08-29T08:17:49.829Z,28.28
2023-08-29T08:20:51.774Z,28.17
2023-08-29T08:23:53.607Z,28.24
2023-08-29T08:26:55.513Z,28.46
2023-08-29T08:29:57.778Z,28.63
2023-08-29T08:32:59.541Z,28.83
2023-08-29T08:36:01.380Z,29.05
2023-08-29T08:39:05.054Z,29.11
2023-08-29T08:42:07.084Z,29.22
2023-08-29T08:45:11.664Z,29.40
2023-08-29T08:48:14.345Z,29.40
2023-08-29T08:51:20.385Z,29.32
2023-08-29T08:54:22.229Z,29.48
2023-08-29T08:57:24.774Z,29.51
2023-08-29T09:00:26.679Z,29.60
2023-08-29T09:03:28.577Z,29.66
2023-08-29T09:06:31.682Z,29.77
2023-08-29T09:09:33.734Z,30.10
2023-08-29T09:12:35.780Z,30.09
2023-08-29T09:15:39.158Z,30.00
2023-08-29T09:18:44.720Z,30.21
2023-08-29T09:21:46.645Z,30.30
2023-08-29T09:24:50.363Z,30.34
2023-08-29T09:27:52.334Z,30.20
2023-08-29T09:30:54.567Z,29.94
2023-08-29T09:33:56.547Z,29.60
2023-08-29T09:36:59.679Z,29.56
2023-08-29T09:40:11.283Z,29.71
2023-08-29T09:43:23.389Z,29.72
2023-08-29T09:46:30.857Z,29.97
2023-08-29T09:49:43.868Z,30.08
2023-08-29T09:52:46.606Z,30.22
2023-08-29T09:55:54.486Z,30.20
2023-08-29T09:59:00.718Z,30.34
2023-08-29T10:02:05.106Z,30.57
2023-08-29T10:05:13.353Z,30.61
2023-08-29T10:08:25.216Z,30.72
2023-08-29T10:11:32.416Z,30.84
2023-08-29T10:14:39.816Z,30.93
2023-08-29T10:17:44.006Z,30.97
2023-08-29T10:20:47.333Z,30.90
2023-08-29T10:23:52.749Z,30.93
2023-08-29T10:26:55.257Z,30.96
2023-08-29T10:29:57.334Z,30.89
2023-08-29T10:32:59.980Z,31.04
2023-08-29T10:36:05.028Z,31.15
2023-08-29T10:39:10.769Z,31.19
2023-08-29T10:42:15.605Z,30.95
2023-08-29T10:45:17.798Z,30.87
2023-08-29T10:48:46.182Z,30.94
2023-08-29T10:52:08.604Z,30.84
2023-08-29T10:55:21.888Z,30.71
2023-08-29T10:58:42.767Z,30.59
2023-08-29T11:01:44.745Z,30.75
2023-08-29T11:04:55.934Z,30.61
2023-08-29T11:08:24.037Z,30.59
2023-08-29T11:11:25.926Z,30.53
2023-08-29T11:14:54.437Z,30.67
2023-08-29T11:18:24.775Z,30.62
2023-08-29T11:21:27.099Z,30.57
2023-08-29T11:24:30.482Z,30.55
2023-08-29T11:27:39.413Z,30.51
2023-08-29T11:30:44.802Z,30.33
2023-08-29T11:33:48.000Z,30.27
2023-08-29T11:36:52.329Z,30.05
2023-08-29T11:39:56.743Z,30.25
2023-08-29T11:43:49.927Z,30.22
2023-08-29T11:46:21.255Z,30.29
2023-08-29T11:49:23.184Z,30.29
2023-08-29T11:52:25.251Z,30.26
2023-08-29T11:55:27.383Z,30.34
2023-08-29T11:58:30.699Z,30.35
2023-08-29T12:01:37.699Z,30.21
2023-08-29T12:04:43.793Z,30.14
2023-08-29T12:07:46.222Z,30.22
2023-08-29T12:10:54.014Z,30.21
2023-08-29T12:14:08.287Z,30.34
2023-08-29T12:17:10.698Z,30.47
2023-08-29T12:20:12.511Z,30.53
2023-08-29T12:23:23.864Z,30.68
2023-08-29T12:26:26.302Z,30.73
2023-08-29T12:29:28.227Z,30.69
2023-08-29T12:32:30.797Z,30.62
2023-08-29T12:35:32.704Z,30.36
2023-08-29T12:38:34.712Z,30.23
2023-08-29T12:41:37.566Z,30.10
2023-08-29T12:44:39.531Z,30.26
2023-08-29T12:47:41.540Z,30.43
2023-08-29T12:50:44.000Z,30.54
2023-08-29T12:53:45.829Z,30.56
2023-08-29T12:56:47.783Z,30.63
2023-08-29T12:59:49.748Z,30.50
2023-08-29T13:02:52.310Z,30.39
2023-08-29T13:05:54.529Z,30.38
2023-08-29T13:08:57.733Z,30.30
2023-08-29T13:11:59.549Z,30.10
2023-08-29T13:15:01.435Z,30.05
2023-08-29T13:18:04.062Z,30.02
2023-08-29T13:21:05.981Z,29.99
2023-08-29T13:24:08.368Z,29.95
2023-08-29T13:27:10.481Z,29.95
2023-08-29T13:30:13.664Z,29.93
2023-08-29T13:33:15.570Z,29.80
2023-08-29T13:36:17.496Z,29.76
2023-08-29T13:39:19.453Z,29.77
2023-08-29T13:42:21.380Z,29.75
2023-08-29T13:45:23.330Z,29.77
2023-08-29T13:48:25.282Z,29.75
2023-08-29T13:51:27.404Z,29.85
2023-08-29T13:54:29.318Z,29.87
2023-08-29T13:57:31.961Z,29.84
2023-08-29T14:00:33.975Z,29.85
2023-08-29T14:03:39.106Z,29.89
2023-08-29T14:06:41.546Z,29.93
2023-08-29T14:09:43.653Z,29.99
2023-08-29T14:12:46.197Z,30.08
2023-08-29T14:15:48.097Z,30.05
2023-08-29T14:18:50.029Z,30.15
2023-08-29T14:21:51.993Z,30.13
2023-08-29T14:24:53.928Z,30.18
2023-08-29T14:27:58.452Z,30.14
2023-08-29T14:31:00.449Z,30.19
2023-08-29T14:34:02.393Z,30.17
2023-08-29T14:37:05.132Z,30.08
2023-08-29T14:40:08.102Z,30.09
2023-08-29T14:43:10.570Z,30.03
2023-08-29T14:46:12.477Z,29.98
2023-08-29T14:49:16.406Z,29.95
2023-08-29T14:52:18.369Z,29.83
2023-08-29T14:55:22.670Z,29.68
2023-08-29T14:58:25.791Z,29.56
2023-08-29T15:01:28.134Z,29.40
2023-08-29T15:04:30.054Z,29.21
2023-08-29T15:07:32.009Z,29.11
2023-08-29T15:10:34.224Z,28.98
2023-08-29T15:13:36.300Z,28.91
2023-08-29T15:16:38.226Z,28.80
2023-08-29T15:19:40.488Z,28.71
2023-08-29T15:22:45.382Z,28.62
2023-08-29T15:25:47.270Z,28.44
2023-08-29T15:28:49.312Z,28.35
2023-08-29T15:31:51.222Z,28.26
2023-08-29T15:34:53.179Z,28.15
2023-08-29T15:37:55.137Z,28.05
2023-08-29T15:40:57.055Z,27.98
2023-08-29T15:43:58.944Z,27.88
2023-08-29T15:47:01.707Z,27.76
2023-08-29T15:50:04.230Z,27.63
2023-08-29T15:53:06.127Z,27.51
2023-08-29T15:56:08.498Z,27.45
2023-08-29T15:59:10.324Z,27.33
2023-08-29T16:02:12.324Z,27.19
2023-08-29T16:05:14.560Z,27.01
2023-08-29T16:08:16.904Z,26.83
2023-08-29T16:11:20.640Z,26.69
2023-08-29T16:14:23.397Z,26.60
2023-08-29T16:17:26.475Z,26.49
2023-08-29T16:20:28.466Z,26.41
2023-08-29T16:23:30.845Z,26.30
2023-08-29T16:26:32.760Z,26.19
2023-08-29T16:29:34.739Z,26.04
2023-08-29T16:32:36.933Z,26.00
2023-08-29T16:35:38.874Z,25.92
2023-08-29T16:38:41.083Z,25.79
2023-08-29T16:41:42.887Z,25.66
2023-08-29T16:44:44.802Z,25.66
2023-08-29T16:47:46.825Z,25.60
2023-08-29T16:50:50.950Z,25.52
2023-08-29T16:53:52.814Z,25.44
2023-08-29T16:56:54.570Z,25.29
2023-08-29T17:00:01.761Z,25.33
2023-08-29T17:03:11.180Z,25.22
2023-08-29T17:06:14.045Z,25.15
2023-08-29T17:09:15.988Z,25.05
2023-08-29T17:12:18.896Z,24.89
2023-08-29T17:15:20.819Z,24.89
2023-08-29T17:18:22.635Z,24.75
2023-08-29T17:21:24.841Z,24.69
2023-08-29T17:24:27.237Z,24.65
2023-08-29T17:27:29.230Z,24.59
2023-08-29T17:30:31.038Z,24.41
2023-08-29T17:33:33.040Z,24.42
2023-08-29T17:36:34.889Z,24.34
2023-08-29T17:39:37.278Z,24.32
2023-08-29T17:42:43.838Z,24.27
2023-08-29T17:45:46.088Z,24.23
2023-08-29T17:48:48.033Z,24.18
2023-08-29T17:51:50.012Z,24.09
2023-08-29T17:54:52.209Z,23.97
2023-08-29T17:57:54.212Z,23.96
2023-08-29T18:00:55.966Z,23.86
2023-08-29T18:03:59.848Z,23.93
2023-08-29T18:07:01.860Z,23.93
2023-08-29T18:10:10.988Z,23.79
2023-08-29T18:13:13.812Z,23.78
2023-08-29T18:16:15.771Z,23.72
2023-08-29T18:19:17.766Z,23.63
2023-08-29T18:22:19.675Z,23.56
2023-08-29T18:25:21.630Z,23.53
2023-08-29T18:28:23.516Z,23.50
2023-08-29T18:31:25.478Z,23.47
2023-08-29T18:34:27.336Z,23.40
2023-08-29T18:37:29.242Z,23.39
2023-08-29T18:40:31.362Z,23.35
2023-08-29T18:43:33.154Z,23.23
2023-08-29T18:46:35.365Z,23.21
2023-08-29T18:49:37.284Z,23.19
2023-08-29T18:52:39.393Z,23.12
2023-08-29T18:55:45.267Z,23.00
2023-08-29T18:58:47.301Z,22.93
2023-08-29T19:01:49.267Z,22.87
2023-08-29T19:04:51.576Z,22.82
2023-08-29T19:07:55.753Z,22.79
2023-08-29T19:11:06.212Z,22.78
2023-08-29T19:14:08.542Z,22.72
2023-08-29T19:17:10.437Z,22.68
2023-08-29T19:20:12.550Z,22.61
2023-08-29T19:23:14.679Z,22.53
2023-08-29T19:26:16.618Z,22.55
2023-08-29T19:29:20.091Z,22.54
2023-08-29T19:32:22.142Z,22.50
2023-08-29T19:35:27.079Z,22.46
2023-08-29T19:38:28.973Z,22.41
2023-08-29T19:41:32.060Z,22.41
2023-08-29T19:44:34.030Z,22.39
2023-08-29T19:47:35.925Z,22.34
2023-08-29T19:50:37.891Z,22.33
2023-08-29T19:53:39.692Z,22.28
2023-08-29T19:56:41.653Z,22.22
2023-08-29T19:59:43.615Z,22.17
2023-08-29T20:02:48.005Z,22.13
2023-08-29T20:05:50.179Z,22.05
2023-08-29T20:08:52.696Z,22.09
2023-08-29T20:11:55.147Z,22.03
2023-08-29T20:14:57.083Z,22.00
2023-08-29T20:17:59.541Z,21.89
2023-08-29T20:21:02.237Z,21.85
2023-08-29T20:24:04.763Z,21.82
2023-08-29T20:27:06.742Z,21.80
2023-08-29T20:30:10.895Z,21.74
2023-08-29T20:33:12.793Z,21.73
2023-08-29T20:36:14.777Z,21.71
2023-08-29T20:39:16.756Z,21.67
2023-08-29T20:42:18.730Z,21.65
2023-08-29T20:45:23.115Z,21.64
2023-08-29T20:48:26.163Z,21.59
2023-08-29T20:51:30.393Z,21.57
2023-08-29T20:54:32.229Z,21.58
2023-08-29T20:57:34.213Z,21.57
2023-08-29T21:00:36.317Z,21.54
2023-08-29T21:03:38.334Z,21.49
2023-08-29T21:06:40.403Z,21.44
2023-08-29T21:09:42.459Z,21.35
2023-08-29T21:12:44.412Z,21.32
2023-08-29T21:15:47.139Z,21.27
2023-08-29T21:18:49.019Z,21.27
2023-08-29T21:21:50.965Z,21.22
2023-08-29T21:24:53.919Z,21.11
2023-08-29T21:27:55.798Z,21.04
2023-08-29T21:30:57.838Z,21.01
2023-08-29T21:33:59.717Z,20.98
2023-08-29T21:37:01.633Z,20.95
2023-08-29T21:40:05.950Z,20.92
2023-08-29T21:43:09.847Z,20.84
2023-08-29T21:46:11.847Z,20.83
2023-08-29T21:49:13.689Z,20.77
2023-08-29T21:52:15.617Z,20.70
2023-08-29T21:55:17.537Z,20.65
2023-08-29T21:58:23.169Z,20.65
2023-08-29T22:01:25.153Z,20.62
2023-08-29T22:04:27.056Z,20.61
2023-08-29T22:07:29.132Z,20.59
2023-08-29T22:10:32.329Z,20.57
2023-08-29T22:13:35.912Z,20.51
2023-08-29T22:16:37.808Z,20.51
2023-08-29T22:19:39.697Z,20.49
2023-08-29T22:22:42.040Z,20.48
2023-08-29T22:25:44.806Z,20.44
2023-08-29T22:28:46.568Z,20.39
2023-08-29T22:31:48.489Z,20.41
2023-08-29T22:34:50.539Z,20.38
2023-08-29T22:37:53.084Z,20.35
2023-08-29T22:40:55.244Z,20.32
2023-08-29T22:43:57.178Z,20.31
2023-08-29T22:46:59.178Z,20.27
2023-08-29T22:50:01.254Z,20.21
2023-08-29T22:53:03.438Z,20.19
2023-08-29T22:56:06.257Z,20.16
2023-08-29T22:59:08.114Z,20.13
2023-08-29T23:02:10.124Z,20.08
2023-08-29T23:05:12.196Z,20.02
2023-08-29T23:08:14.963Z,19.92
2023-08-29T23:11:16.984Z,19.86
2023-08-29T23:14:26.865Z,19.84
2023-08-29T23:17:29.440Z,19.83
2023-08-29T23:20:31.526Z,19.81
2023-08-29T23:23:34.887Z,19.77
2023-08-29T23:26:37.347Z,19.75
2023-08-29T23:29:39.431Z,19.70
2023-08-29T23:32:41.352Z,19.60
2023-08-29T23:35:43.220Z,19.59
2023-08-29T23:38:45.245Z,19.56
2023-08-29T23:41:49.040Z,19.53
2023-08-29T23:44:51.013Z,19.48
2023-08-29T23:47:53.034Z,19.47
2023-08-29T23:50:54.980Z,19.45
2023-08-29T23:53:56.991Z,19.49
2023-08-29T23:56:58.935Z,19.48
